createdAt,value
2023-02-25T00:02:02.947Z,4.50
2023-02-25T00:04:59.158Z,4.50
2023-02-25T00:07:32.115Z,4.50
2023-02-25T00:09:58.956Z,4.40
2023-02-25T00:12:25.718Z,4.40
2023-02-25T00:14:52.887Z,4.40
2023-02-25T00:17:19.722Z,4.40
2023-02-25T00:19:49.435Z,4.40
2023-02-25T00:22:16.404Z,4.40
2023-02-25T00:24:43.523Z,4.40
2023-02-25T00:27:10.310Z,4.40
2023-02-25T00:29:37.133Z,4.40
2023-02-25T00:32:04.127Z,4.50
2023-02-25T00:34:31.079Z,4.50
2023-02-25T00:36:58.024Z,4.50
2023-02-25T00:39:24.955Z,4.50
2023-02-25T00:41:51.693Z,4.50
2023-02-25T00:44:18.513Z,4.50
2023-02-25T00:46:45.309Z,4.50
2023-02-25T00:49:16.726Z,4.50
2023-02-25T00:51:47.998Z,4.40
2023-02-25T00:54:14.932Z,4.30
2023-02-25T00:56:41.673Z,4.30
2023-02-25T00:59:08.377Z,4.30
2023-02-25T01:01:38.142Z,4.30
2023-02-25T01:04:05.264Z,4.30
2023-02-25T01:06:33.677Z,4.30
2023-02-25T01:09:02.911Z,4.40
2023-02-25T01:11:30.866Z,4.30
2023-02-25T01:14:08.426Z,4.40
2023-02-25T01:16:36.343Z,4.30
2023-02-25T01:19:05.703Z,4.30
2023-02-25T01:21:34.964Z,4.40
2023-02-25T01:24:03.882Z,4.30
2023-02-25T01:26:33.047Z,4.40
2023-02-25T01:28:59.830Z,4.30
2023-02-25T01:31:31.472Z,4.40
2023-02-25T01:33:59.421Z,4.30
2023-02-25T01:36:26.673Z,4.30
2023-02-25T01:38:55.811Z,4.40
2023-02-25T01:41:24.013Z,4.30
2023-02-25T01:44:09.547Z,4.40
2023-02-25T01:46:37.211Z,4.40
2023-02-25T01:49:06.723Z,4.30
2023-02-25T01:51:34.130Z,4.30
2023-02-25T01:54:02.812Z,4.40
2023-02-25T01:56:30.615Z,4.30
2023-02-25T01:58:58.330Z,4.30
2023-02-25T02:01:26.575Z,4.30
2023-02-25T02:03:53.764Z,4.20
2023-02-25T02:06:25.631Z,4.30
2023-02-25T02:08:55.203Z,4.30
2023-02-25T02:11:22.051Z,4.30
2023-02-25T02:13:50.684Z,4.30
2023-02-25T02:16:32.067Z,4.30
2023-02-25T02:19:03.356Z,4.30
2023-02-25T02:21:30.116Z,4.30
2023-02-25T02:24:15.005Z,4.30
2023-02-25T02:26:49.096Z,4.20
2023-02-25T02:29:15.870Z,4.20
2023-02-25T02:31:52.497Z,4.20
2023-02-25T02:34:19.278Z,4.20
2023-02-25T02:36:52.056Z,4.20
2023-02-25T02:39:25.146Z,4.20
2023-02-25T02:42:13.079Z,4.20
2023-02-25T02:44:39.930Z,4.10
2023-02-25T02:47:09.575Z,4.10
2023-02-25T02:49:39.193Z,4.10
2023-02-25T02:52:16.226Z,4.00
2023-02-25T02:54:51.779Z,4.00
2023-02-25T02:57:21.666Z,3.90
2023-02-25T02:59:52.375Z,3.90
2023-02-25T03:02:22.792Z,3.90
2023-02-25T03:04:53.599Z,3.90
2023-02-25T03:07:22.182Z,3.90
2023-02-25T03:09:53.875Z,3.80
2023-02-25T03:12:20.834Z,3.80
2023-02-25T03:14:47.637Z,3.70
2023-02-25T03:17:35.962Z,3.70
2023-02-25T03:20:13.415Z,3.70
2023-02-25T03:22:42.153Z,3.60
2023-02-25T03:25:21.078Z,3.60
2023-02-25T03:27:53.783Z,3.60
2023-02-25T03:30:23.482Z,3.60
2023-02-25T03:32:56.647Z,3.60
2023-02-25T03:35:24.127Z,3.60
2023-02-25T03:37:52.284Z,3.60
2023-02-25T03:40:20.595Z,3.60
2023-02-25T03:42:58.587Z,3.60
2023-02-25T03:45:27.594Z,3.70
2023-02-25T03:47:55.578Z,3.60
2023-02-25T03:50:24.056Z,3.60
2023-02-25T03:52:55.562Z,3.60
2023-02-25T03:55:40.942Z,3.60
2023-02-25T03:58:08.056Z,3.60
2023-02-25T04:00:35.697Z,3.60
2023-02-25T04:03:02.553Z,3.60
2023-02-25T04:05:29.282Z,3.50
2023-02-25T04:07:56.371Z,3.50
2023-02-25T04:10:24.341Z,3.50
2023-02-25T04:12:51.459Z,3.50
2023-02-25T04:15:19.122Z,3.50
2023-02-25T04:17:46.994Z,3.40
2023-02-25T04:20:16.114Z,3.50
2023-02-25T04:22:43.439Z,3.40
2023-02-25T04:25:10.772Z,3.40
2023-02-25T04:27:37.525Z,3.40
2023-02-25T04:30:04.877Z,3.40
2023-02-25T04:32:32.009Z,3.40
2023-02-25T04:35:03.160Z,3.40
2023-02-25T04:37:31.152Z,3.40
2023-02-25T04:40:05.190Z,3.40
2023-02-25T04:42:31.962Z,3.40
2023-02-25T04:44:58.822Z,3.40
2023-02-25T04:47:25.590Z,3.50
2023-02-25T04:49:52.391Z,3.40
2023-02-25T04:52:19.332Z,3.40
2023-02-25T04:54:46.235Z,3.40
2023-02-25T04:57:13.292Z,3.40
2023-02-25T04:59:40.707Z,3.40
2023-02-25T05:02:08.350Z,3.40
2023-02-25T05:04:38.586Z,3.40
2023-02-25T05:07:06.223Z,3.40
2023-02-25T05:09:33.199Z,3.40
2023-02-25T05:12:00.661Z,3.50
2023-02-25T05:14:27.707Z,3.50
2023-02-25T05:16:54.473Z,3.50
2023-02-25T05:19:22.770Z,3.40
2023-02-25T05:21:50.300Z,3.40
2023-02-25T05:24:17.234Z,3.40
2023-02-25T05:26:44.803Z,3.40
2023-02-25T05:29:12.191Z,3.40
2023-02-25T05:31:39.870Z,3.40
2023-02-25T05:34:07.206Z,3.40
2023-02-25T05:36:34.199Z,3.40
2023-02-25T05:39:02.890Z,3.40
2023-02-25T05:41:30.442Z,3.40
2023-02-25T05:43:58.121Z,3.40
2023-02-25T05:46:26.751Z,3.40
2023-02-25T05:48:54.289Z,3.40
2023-02-25T05:51:23.546Z,3.40
2023-02-25T05:53:51.388Z,3.40
2023-02-25T05:56:19.821Z,3.40
2023-02-25T05:58:48.755Z,3.40
2023-02-25T06:01:17.258Z,3.40
2023-02-25T06:03:46.882Z,3.40
2023-02-25T06:06:14.987Z,3.40
2023-02-25T06:08:44.346Z,3.40
2023-02-25T06:11:14.305Z,3.40
2023-02-25T06:13:43.379Z,3.40
2023-02-25T06:16:10.391Z,3.40
2023-02-25T06:18:37.196Z,3.40
2023-02-25T06:21:08.174Z,3.40
2023-02-25T06:23:35.658Z,3.40
2023-02-25T06:26:02.790Z,3.50
2023-02-25T06:28:29.953Z,3.40
2023-02-25T06:30:57.130Z,3.40
2023-02-25T06:33:24.551Z,3.30
2023-02-25T06:35:52.589Z,3.30
2023-02-25T06:38:20.003Z,3.30
2023-02-25T06:40:47.142Z,3.30
2023-02-25T06:43:13.892Z,3.30
2023-02-25T06:45:40.742Z,3.30
2023-02-25T06:48:07.579Z,3.40
2023-02-25T06:50:34.461Z,3.40
2023-02-25T06:53:01.206Z,3.30
2023-02-25T06:55:28.023Z,3.40
2023-02-25T06:57:54.769Z,3.30
2023-02-25T07:00:21.678Z,3.30
2023-02-25T07:02:48.580Z,3.30
2023-02-25T07:05:15.385Z,3.30
2023-02-25T07:07:42.205Z,3.20
2023-02-25T07:10:10.607Z,3.30
2023-02-25T07:12:37.338Z,3.30
2023-02-25T07:15:11.265Z,3.20
2023-02-25T07:17:38.193Z,3.20
2023-02-25T07:20:05.197Z,3.20
2023-02-25T07:22:32.076Z,3.20
2023-02-25T07:24:58.865Z,3.20
2023-02-25T07:27:25.688Z,3.20
2023-02-25T07:29:52.408Z,3.30
2023-02-25T07:32:19.232Z,3.30
2023-02-25T07:34:46.110Z,3.20
2023-02-25T07:37:12.896Z,3.20
2023-02-25T07:39:39.623Z,3.30
2023-02-25T07:42:06.479Z,3.40
2023-02-25T07:44:35.964Z,3.30
2023-02-25T07:47:02.719Z,3.30
2023-02-25T07:49:29.608Z,3.40
2023-02-25T07:51:56.868Z,3.30
2023-02-25T07:54:23.768Z,3.40
2023-02-25T07:56:53.709Z,3.40
2023-02-25T07:59:20.554Z,3.50
2023-02-25T08:01:47.766Z,3.40
2023-02-25T08:04:14.787Z,3.40
2023-02-25T08:06:43.765Z,3.40
2023-02-25T08:09:14.308Z,3.50
2023-02-25T08:11:41.278Z,3.40
2023-02-25T08:14:08.198Z,3.40
2023-02-25T08:16:36.503Z,3.50
2023-02-25T08:19:04.118Z,3.50
2023-02-25T08:21:31.426Z,3.40
2023-02-25T08:23:58.497Z,3.40
2023-02-25T08:26:27.509Z,3.40
2023-02-25T08:28:56.215Z,3.40
2023-02-25T08:31:27.194Z,3.40
2023-02-25T08:33:54.990Z,3.40
2023-02-25T08:36:28.062Z,3.40
2023-02-25T08:38:57.187Z,3.40
2023-02-25T08:41:26.138Z,3.40
2023-02-25T08:43:54.943Z,3.40
2023-02-25T08:46:30.427Z,3.30
2023-02-25T08:48:57.929Z,3.30
2023-02-25T08:51:34.148Z,3.20
2023-02-25T08:54:02.790Z,3.30
2023-02-25T08:56:30.038Z,3.30
2023-02-25T08:58:57.083Z,3.30
2023-02-25T09:01:24.368Z,3.40
2023-02-25T09:03:52.937Z,3.40
2023-02-25T09:06:21.051Z,3.40
2023-02-25T09:08:48.283Z,3.30
2023-02-25T09:11:15.666Z,3.40
2023-02-25T09:13:45.699Z,3.30
2023-02-25T09:16:17.162Z,3.30
2023-02-25T09:18:47.770Z,3.40
2023-02-25T09:21:14.883Z,3.40
2023-02-25T09:23:41.851Z,3.40
2023-02-25T09:26:08.894Z,3.40
2023-02-25T09:28:36.672Z,3.40
2023-02-25T09:31:03.601Z,3.40
2023-02-25T09:33:31.386Z,3.40
2023-02-25T09:36:15.032Z,3.40
2023-02-25T09:38:42.979Z,3.40
2023-02-25T09:41:16.279Z,3.40
2023-02-25T09:43:43.237Z,3.40
2023-02-25T09:46:12.282Z,3.40
2023-02-25T09:48:46.272Z,3.40
2023-02-25T09:51:27.354Z,3.40
2023-02-25T09:54:08.406Z,3.50
2023-02-25T09:56:35.951Z,3.40
2023-02-25T09:59:03.715Z,3.50
2023-02-25T10:01:35.111Z,3.50
2023-02-25T10:04:15.808Z,3.50
2023-02-25T10:06:46.151Z,3.50
2023-02-25T10:09:12.873Z,3.60
2023-02-25T10:11:39.879Z,3.60
2023-02-25T10:14:22.284Z,3.70
2023-02-25T10:16:54.465Z,3.70
2023-02-25T10:19:50.905Z,3.60
2023-02-25T10:22:23.765Z,3.70
2023-02-25T10:25:02.019Z,3.60
2023-02-25T10:27:40.166Z,3.70
2023-02-25T10:30:14.498Z,3.70
2023-02-25T10:32:51.583Z,3.70
2023-02-25T10:35:18.625Z,3.70
2023-02-25T10:37:49.056Z,3.70
2023-02-25T10:40:17.654Z,3.80
2023-02-25T10:42:49.740Z,3.70
2023-02-25T10:45:39.655Z,3.80
2023-02-25T10:48:21.543Z,3.80
2023-02-25T10:51:12.157Z,3.80
2023-02-25T10:54:02.114Z,3.80
2023-02-25T10:56:36.887Z,3.80
2023-02-25T10:59:05.758Z,3.80
2023-02-25T11:01:39.324Z,3.70
2023-02-25T11:04:14.489Z,3.70
2023-02-25T11:06:44.100Z,3.70
2023-02-25T11:09:20.376Z,3.80
2023-02-25T11:11:55.374Z,3.80
2023-02-25T11:14:29.488Z,3.80
2023-02-25T11:17:08.563Z,3.80
2023-02-25T11:19:38.418Z,3.70
2023-02-25T11:22:16.041Z,3.70
2023-02-25T11:24:55.495Z,3.80
2023-02-25T11:27:39.561Z,3.80
2023-02-25T11:30:08.318Z,3.90
2023-02-25T11:32:40.514Z,3.90
2023-02-25T11:35:16.573Z,4.00
2023-02-25T11:37:45.599Z,4.00
2023-02-25T11:40:22.137Z,4.10
2023-02-25T11:43:04.678Z,4.10
2023-02-25T11:45:33.245Z,4.00
2023-02-25T11:48:03.416Z,4.10
2023-02-25T11:50:53.583Z,4.10
2023-02-25T11:53:20.425Z,4.20
2023-02-25T11:55:56.562Z,4.20
2023-02-25T11:58:43.977Z,4.20
2023-02-25T12:01:16.996Z,4.20
2023-02-25T12:03:47.211Z,4.30
2023-02-25T12:06:14.200Z,4.30
2023-02-25T12:08:47.971Z,4.30
2023-02-25T12:11:24.186Z,4.30
2023-02-25T12:13:51.186Z,4.30
2023-02-25T12:16:30.319Z,4.30
2023-02-25T12:19:21.338Z,4.30
2023-02-25T12:21:48.121Z,4.30
2023-02-25T12:24:34.609Z,4.40
2023-02-25T12:27:24.055Z,4.40
2023-02-25T12:29:51.811Z,4.40
2023-02-25T12:32:18.834Z,4.40
2023-02-25T12:34:48.680Z,4.40
2023-02-25T12:37:24.530Z,4.50
2023-02-25T12:40:05.019Z,4.50
2023-02-25T12:42:51.400Z,4.60
2023-02-25T12:45:31.329Z,4.60
2023-02-25T12:48:17.205Z,4.60
2023-02-25T12:51:02.850Z,4.50
2023-02-25T12:53:29.973Z,4.50
2023-02-25T12:56:05.519Z,4.50
2023-02-25T12:58:44.692Z,4.50
2023-02-25T13:01:30.376Z,4.60
2023-02-25T13:04:15.815Z,4.60
2023-02-25T13:06:55.242Z,4.50
2023-02-25T13:09:25.212Z,4.60
2023-02-25T13:12:19.935Z,4.60
2023-02-25T13:14:57.964Z,4.60
2023-02-25T13:17:35.593Z,4.70
2023-02-25T13:20:21.253Z,4.70
2023-02-25T13:23:11.546Z,4.70
2023-02-25T13:25:38.373Z,4.70
2023-02-25T13:28:11.427Z,4.60
2023-02-25T13:30:41.975Z,4.50
2023-02-25T13:33:11.229Z,4.50
2023-02-25T13:35:43.934Z,4.50
2023-02-25T13:38:13.756Z,4.50
2023-02-25T13:40:50.152Z,4.50
2023-02-25T13:43:16.992Z,4.60
2023-02-25T13:45:52.168Z,4.60
2023-02-25T13:48:57.683Z,4.60
2023-02-25T13:51:39.063Z,4.60
2023-02-25T13:54:35.375Z,4.50
2023-02-25T13:57:20.336Z,4.50
2023-02-25T14:00:07.049Z,4.50
2023-02-25T14:02:39.024Z,4.50
2023-02-25T14:05:11.963Z,4.60
2023-02-25T14:07:46.428Z,4.60
2023-02-25T14:10:45.728Z,4.70
2023-02-25T14:13:16.216Z,4.70
2023-02-25T14:15:52.232Z,4.70
2023-02-25T14:18:19.092Z,4.70
2023-02-25T14:21:04.809Z,4.70
2023-02-25T14:23:47.053Z,4.70
2023-02-25T14:26:17.212Z,4.60
2023-02-25T14:29:01.292Z,4.70
2023-02-25T14:31:28.632Z,4.70
2023-02-25T14:34:03.634Z,4.70
2023-02-25T14:37:03.088Z,4.70
2023-02-25T14:39:38.913Z,4.70
2023-02-25T14:42:05.735Z,4.70
2023-02-25T14:44:51.305Z,4.60
2023-02-25T14:47:29.032Z,4.60
2023-02-25T14:49:55.760Z,4.60
2023-02-25T14:52:28.640Z,4.60
2023-02-25T14:55:08.050Z,4.60
2023-02-25T14:57:53.617Z,4.70
2023-02-25T15:00:39.324Z,4.70
2023-02-25T15:03:25.609Z,4.70
2023-02-25T15:05:55.355Z,4.60
2023-02-25T15:08:32.829Z,4.60
2023-02-25T15:11:12.146Z,4.50
2023-02-25T15:13:57.797Z,4.40
2023-02-25T15:16:43.302Z,4.40
2023-02-25T15:19:17.341Z,4.40
2023-02-25T15:21:46.567Z,4.30
2023-02-25T15:24:32.555Z,4.30
2023-02-25T15:26:59.672Z,4.30
2023-02-25T15:29:29.389Z,4.30
2023-02-25T15:32:15.350Z,4.20
2023-02-25T15:34:59.317Z,4.30
2023-02-25T15:37:28.224Z,4.30
2023-02-25T15:39:56.818Z,4.30
2023-02-25T15:42:38.896Z,4.30
2023-02-25T15:45:26.990Z,4.30
2023-02-25T15:48:17.761Z,4.20
2023-02-25T15:50:47.432Z,4.20
2023-02-25T15:53:23.044Z,4.20
2023-02-25T15:55:54.065Z,4.20
2023-02-25T15:58:24.100Z,4.10
2023-02-25T16:00:56.030Z,4.00
2023-02-25T16:03:26.283Z,3.90
2023-02-25T16:05:53.885Z,3.90
2023-02-25T16:08:27.586Z,3.90
2023-02-25T16:10:55.930Z,3.90
2023-02-25T16:13:27.434Z,3.80
2023-02-25T16:15:55.480Z,3.90
2023-02-25T16:18:22.287Z,3.80
2023-02-25T16:20:50.005Z,3.80
2023-02-25T16:23:17.534Z,3.70
2023-02-25T16:25:47.408Z,3.70
2023-02-25T16:28:20.264Z,3.70
2023-02-25T16:34:52.780Z,3.60
2023-02-25T16:43:24.762Z,3.60
2023-02-25T16:55:21.694Z,3.50
2023-02-25T16:58:31.221Z,3.50
2023-02-25T17:01:48.707Z,3.40
2023-02-25T17:49:07.054Z,3.00
2023-02-25T17:51:43.972Z,2.90
2023-02-25T17:54:16.627Z,2.80
2023-02-25T17:56:43.464Z,2.80
2023-02-25T17:59:13.280Z,2.80
2023-02-25T18:01:48.488Z,2.80
2023-02-25T18:04:23.713Z,2.70
2023-02-25T18:06:50.832Z,2.70
2023-02-25T18:09:28.692Z,2.70
2023-02-25T18:11:59.743Z,2.70
2023-02-25T18:14:40.646Z,2.70
2023-02-25T18:17:30.816Z,2.60
2023-02-25T18:19:59.612Z,2.60
2023-02-25T18:22:48.070Z,2.60
2023-02-25T18:25:47.462Z,2.60
2023-02-25T18:28:18.851Z,2.50
2023-02-25T18:30:45.807Z,2.50
2023-02-25T18:33:13.300Z,2.60
2023-02-25T18:35:41.900Z,2.50
2023-02-25T18:38:20.789Z,2.50
2023-02-25T18:40:49.019Z,2.50
2023-02-25T18:43:17.433Z,2.50
2023-02-25T18:45:45.146Z,2.50
2023-02-25T18:48:12.553Z,2.40
2023-02-25T18:50:42.605Z,2.40
2023-02-25T18:53:14.042Z,2.40
2023-02-25T18:55:40.794Z,2.30
2023-02-25T18:58:12.269Z,2.30
2023-02-25T19:00:39.351Z,2.30
2023-02-25T19:03:07.316Z,2.30
2023-02-25T19:05:34.481Z,2.30
2023-02-25T19:08:01.418Z,2.30
2023-02-25T19:10:29.744Z,2.30
2023-02-25T19:13:04.393Z,2.40
2023-02-25T19:15:31.641Z,2.20
2023-02-25T19:17:58.440Z,2.20
2023-02-25T19:20:25.387Z,2.20
2023-02-25T19:22:52.865Z,2.20
2023-02-25T19:25:30.909Z,2.10
2023-02-25T19:27:58.280Z,2.10
2023-02-25T19:30:27.091Z,2.00
2023-02-25T19:32:55.786Z,2.00
2023-02-25T19:35:22.705Z,2.00
2023-02-25T19:37:49.636Z,2.00
2023-02-25T19:40:16.595Z,2.00
2023-02-25T19:42:44.587Z,2.00
2023-02-25T19:45:13.606Z,2.00
2023-02-25T19:47:40.527Z,2.00
2023-02-25T19:50:07.650Z,2.00
2023-02-25T19:52:34.534Z,2.00
2023-02-25T19:55:01.429Z,1.90
2023-02-25T19:57:28.281Z,1.90
2023-02-25T19:59:55.100Z,1.90
2023-02-25T20:02:22.167Z,1.90
2023-02-25T20:04:50.155Z,1.90
2023-02-25T20:07:17.425Z,1.80
2023-02-25T20:09:45.369Z,1.80
2023-02-25T20:12:14.490Z,1.80
2023-02-25T20:14:41.464Z,1.80
2023-02-25T20:17:09.568Z,1.80
2023-02-25T20:19:36.562Z,1.80
2023-02-25T20:22:05.837Z,1.80
2023-02-25T20:24:34.208Z,1.80
2023-02-25T20:27:01.261Z,1.70
2023-02-25T20:29:28.554Z,1.70
2023-02-25T20:31:58.858Z,1.60
2023-02-25T20:34:27.512Z,1.60
2023-02-25T20:37:01.557Z,1.60
2023-02-25T20:39:37.589Z,1.50
2023-02-25T20:42:05.165Z,1.40
2023-02-25T20:44:32.394Z,1.50
2023-02-25T20:46:59.321Z,1.40
2023-02-25T20:49:26.364Z,1.40
2023-02-25T20:51:53.638Z,1.50
2023-02-25T20:54:20.645Z,1.50
2023-02-25T20:56:50.094Z,1.50
2023-02-25T20:59:19.104Z,1.50
2023-02-25T21:01:46.095Z,1.50
2023-02-25T21:04:13.219Z,1.40
2023-02-25T21:06:40.203Z,1.50
2023-02-25T21:09:07.355Z,1.50
2023-02-25T21:11:34.469Z,1.40
2023-02-25T21:14:01.356Z,1.50
2023-02-25T21:16:28.569Z,1.40
2023-02-25T21:18:58.062Z,1.40
2023-02-25T21:21:26.787Z,1.40
2023-02-25T21:23:53.581Z,1.40
2023-02-25T21:26:20.422Z,1.40
2023-02-25T21:28:48.453Z,1.40
2023-02-25T21:31:16.039Z,1.40
2023-02-25T21:33:43.304Z,1.30
2023-02-25T21:36:10.641Z,1.30
2023-02-25T21:38:37.866Z,1.20
2023-02-25T21:41:14.741Z,1.20
2023-02-25T21:43:42.322Z,1.30
2023-02-25T21:46:11.896Z,1.30
2023-02-25T21:48:39.987Z,1.30
2023-02-25T21:51:07.331Z,1.30
2023-02-25T21:53:34.112Z,1.30
2023-02-25T21:56:08.530Z,1.30
2023-02-25T21:58:35.399Z,1.20
2023-02-25T22:01:16.032Z,1.30
2023-02-25T22:03:43.061Z,1.20
2023-02-25T22:06:10.704Z,1.30
2023-02-25T22:08:41.101Z,1.20
2023-02-25T22:11:15.500Z,1.20
2023-02-25T22:13:43.105Z,1.20
2023-02-25T22:16:10.385Z,1.20
2023-02-25T22:18:37.500Z,1.20
2023-02-25T22:21:14.536Z,1.10
2023-02-25T22:23:43.491Z,1.10
2023-02-25T22:26:16.236Z,1.10
2023-02-25T22:28:43.910Z,1.10
2023-02-25T22:31:12.167Z,1.10
2023-02-25T22:33:39.318Z,1.20
2023-02-25T22:36:09.775Z,1.20
2023-02-25T22:38:37.728Z,1.10
2023-02-25T22:41:10.615Z,1.20
2023-02-25T22:43:39.354Z,1.10
2023-02-25T22:46:10.530Z,1.10
2023-02-25T22:48:38.539Z,1.10
2023-02-25T22:51:06.503Z,1.10
2023-02-25T22:53:33.718Z,1.10
2023-02-25T22:56:05.545Z,1.10
2023-02-25T22:58:32.590Z,1.10
2023-02-25T23:01:02.798Z,1.10
2023-02-25T23:03:30.240Z,1.10
2023-02-25T23:05:58.565Z,1.00
2023-02-25T23:08:25.825Z,1.00
2023-02-25T23:10:52.911Z,1.00
2023-02-25T23:13:19.919Z,1.00
2023-02-25T23:15:47.882Z,1.00
2023-02-25T23:18:15.592Z,1.00
2023-02-25T23:20:43.199Z,1.00
2023-02-25T23:23:13.547Z,1.00
2023-02-25T23:25:41.624Z,1.00
2023-02-25T23:28:08.936Z,1.00
2023-02-25T23:30:36.637Z,1.00
2023-02-25T23:33:04.020Z,1.00
2023-02-25T23:35:30.866Z,1.00
2023-02-25T23:37:57.637Z,1.00
2023-02-25T23:40:25.714Z,1.00
2023-02-25T23:42:52.772Z,1.00
2023-02-25T23:45:23.898Z,1.00
2023-02-25T23:47:51.087Z,0.90
2023-02-25T23:50:18.177Z,0.90
2023-02-25T23:52:45.941Z,0.90
2023-02-25T23:55:13.485Z,0.90
2023-02-25T23:57:40.522Z,0.90
